Terminal Aerodrome Forecast
Issued by NWS

Home | Current Version | Previous Version | Text Only | Print | Product List | Glossary On
Versions: 1 2 3 4 5 6 7 8 9 10 11 12
861
FTUS45 KVEF 242320
TAFBIH
TAF
KBIH 242320Z 2500/2524 19010KT P6SM SCT250
     FM250700 35006KT P6SM SCT100 BKN200
     FM251600 VRB05KT P6SM SCT100 BKN200
     FM252000 17015KT P6SM SCT150=

USA.gov is the U.S. government's official web portal to all federal, state and local government web resources and services.